createdAt,value
2022-10-12T00:01:25.876Z,99867.78
2022-10-12T00:03:53.520Z,99867.75
2022-10-12T00:06:23.235Z,99859.00
2022-10-12T00:08:52.696Z,99872.13
2022-10-12T00:11:22.500Z,99871.94
2022-10-12T00:13:50.466Z,99873.84
2022-10-12T00:16:21.546Z,99880.47
2022-10-12T00:18:51.455Z,99883.81
2022-10-12T00:21:19.447Z,99890.94
2022-10-12T00:23:47.543Z,99889.31
2022-10-12T00:26:17.650Z,99877.22
2022-10-12T00:28:45.765Z,99880.94
2022-10-12T00:31:16.041Z,99880.81
2022-10-12T00:33:45.196Z,99868.66
2022-10-12T00:36:15.354Z,99875.53
2022-10-12T00:38:43.454Z,99863.41
2022-10-12T00:41:11.665Z,99863.28
2022-10-12T00:43:41.857Z,99861.50
2022-10-12T00:46:15.791Z,99863.16
2022-10-12T00:48:45.427Z,99871.06
2022-10-12T00:51:13.222Z,99862.44
2022-10-12T00:53:44.869Z,99865.09
2022-10-12T00:56:14.269Z,99871.03
2022-10-12T00:58:41.953Z,99855.44
2022-10-12T01:01:10.478Z,99863.91
2022-10-12T01:03:38.617Z,99872.44
2022-10-12T01:06:08.892Z,99872.41
2022-10-12T01:08:36.884Z,99863.59
2022-10-12T01:11:04.927Z,99865.56
2022-10-12T01:13:32.905Z,99868.31
2022-10-12T01:16:06.347Z,99876.91
2022-10-12T01:18:41.583Z,99873.50
2022-10-12T01:21:18.447Z,99871.09
2022-10-12T01:24:06.276Z,99874.63
2022-10-12T01:27:10.818Z,99872.22
2022-10-12T01:30:07.312Z,99864.34
2022-10-12T01:32:38.862Z,99863.34
2022-10-12T01:35:09.278Z,99864.09
2022-10-12T01:37:44.084Z,99856.94
2022-10-12T01:40:15.904Z,99849.09
2022-10-12T01:42:44.505Z,99843.78
2022-10-12T01:45:15.071Z,99853.44
2022-10-12T01:47:44.296Z,99853.53
2022-10-12T01:50:13.646Z,99849.09
2022-10-12T01:52:44.454Z,99850.13
2022-10-12T01:55:20.348Z,99851.03
2022-10-12T01:58:07.583Z,99845.00
2022-10-12T02:00:42.818Z,99851.19
2022-10-12T02:03:15.657Z,99846.94
2022-10-12T02:05:48.749Z,99845.22
2022-10-12T02:08:19.658Z,99847.91
2022-10-12T02:10:50.747Z,99845.47
2022-10-12T02:13:19.969Z,99848.16
2022-10-12T02:15:49.461Z,99844.69
2022-10-12T02:18:19.334Z,99835.88
2022-10-12T02:20:47.965Z,99831.88
2022-10-12T02:23:16.156Z,99837.91
2022-10-12T02:25:43.795Z,99831.09
2022-10-12T02:28:13.335Z,99832.00
2022-10-12T02:30:46.126Z,99830.50
2022-10-12T02:33:19.675Z,99824.50
2022-10-12T02:35:52.240Z,99826.88
2022-10-12T02:38:22.995Z,99829.41
2022-10-12T02:40:53.845Z,99828.56
2022-10-12T02:43:25.105Z,99825.22
2022-10-12T02:45:54.447Z,99825.03
2022-10-12T02:48:24.863Z,99826.81
2022-10-12T02:50:54.382Z,99821.69
2022-10-12T02:53:22.493Z,99818.34
2022-10-12T02:55:51.047Z,99813.19
2022-10-12T02:58:19.108Z,99814.78
2022-10-12T03:00:46.825Z,99821.72
2022-10-12T03:03:14.503Z,99817.34
2022-10-12T03:05:44.787Z,99819.06
2022-10-12T03:08:12.414Z,99817.19
2022-10-12T03:10:39.944Z,99815.47
2022-10-12T03:13:07.475Z,99815.34
2022-10-12T03:15:35.041Z,99820.63
2022-10-12T03:18:02.662Z,99818.00
2022-10-12T03:20:30.237Z,99811.97
2022-10-12T03:22:59.077Z,99818.97
2022-10-12T03:25:26.672Z,99817.28
2022-10-12T03:27:54.281Z,99819.06
2022-10-12T03:30:21.955Z,99814.81
2022-10-12T03:32:49.527Z,99823.53
2022-10-12T03:35:17.612Z,99814.00
2022-10-12T03:37:45.218Z,99815.22
2022-10-12T03:40:14.636Z,99823.72
2022-10-12T03:42:42.228Z,99825.53
2022-10-12T03:45:10.434Z,99825.66
2022-10-12T03:47:38.305Z,99818.63
2022-10-12T03:50:06.830Z,99817.72
2022-10-12T03:52:34.468Z,99821.31
2022-10-12T03:55:02.094Z,99814.31
2022-10-12T03:57:31.067Z,99821.38
2022-10-12T03:59:58.638Z,99812.72
2022-10-12T04:02:26.185Z,99790.88
2022-10-12T04:04:53.820Z,99815.13
2022-10-12T04:07:21.382Z,99807.19
2022-10-12T04:09:48.980Z,99815.03
2022-10-12T04:12:16.525Z,99815.22
2022-10-12T04:14:45.499Z,99822.25
2022-10-12T04:17:13.216Z,99822.38
2022-10-12T04:19:40.797Z,99813.03
2022-10-12T04:22:08.387Z,99818.94
2022-10-12T04:24:35.988Z,99818.19
2022-10-12T04:27:03.606Z,99816.47
2022-10-12T04:29:31.141Z,99814.69
2022-10-12T04:32:00.144Z,99816.44
2022-10-12T04:34:27.655Z,99818.25
2022-10-12T04:36:55.379Z,99815.69
2022-10-12T04:39:22.973Z,99815.72
2022-10-12T04:41:50.526Z,99824.44
2022-10-12T04:44:18.112Z,99820.97
2022-10-12T04:46:45.845Z,99829.69
2022-10-12T04:49:14.900Z,99827.03
2022-10-12T04:51:42.471Z,99826.22
2022-10-12T04:54:10.728Z,99829.69
2022-10-12T04:56:38.383Z,99820.09
2022-10-12T04:59:05.980Z,99822.06
2022-10-12T05:01:33.628Z,99819.47
2022-10-12T05:04:01.373Z,99819.53
2022-10-12T05:06:30.325Z,99815.09
2022-10-12T05:08:57.850Z,99822.88
2022-10-12T05:11:25.507Z,99821.06
2022-10-12T05:13:53.072Z,99826.31
2022-10-12T05:16:20.635Z,99794.09
2022-10-12T05:18:48.238Z,99817.50
2022-10-12T05:21:15.833Z,99815.72
2022-10-12T05:23:44.855Z,99812.28
2022-10-12T05:26:12.415Z,99816.69
2022-10-12T05:28:41.275Z,99817.50
2022-10-12T05:31:09.100Z,99803.75
2022-10-12T05:33:36.803Z,99820.31
2022-10-12T05:36:04.814Z,99824.66
2022-10-12T05:38:32.390Z,99823.94
2022-10-12T05:41:01.462Z,99821.28
2022-10-12T05:43:29.687Z,99820.44
2022-10-12T05:45:57.284Z,99817.91
2022-10-12T05:48:25.289Z,99819.78
2022-10-12T05:50:53.855Z,99815.34
2022-10-12T05:53:21.708Z,99821.44
2022-10-12T05:55:53.837Z,99823.06
2022-10-12T05:58:22.890Z,99819.63
2022-10-12T06:00:50.493Z,99814.50
2022-10-12T06:03:19.347Z,99821.56
2022-10-12T06:05:47.610Z,99822.34
2022-10-12T06:08:15.319Z,99816.13
2022-10-12T06:10:47.254Z,99829.94
2022-10-12T06:13:17.679Z,99829.09
2022-10-12T06:15:47.741Z,99823.91
2022-10-12T06:18:15.896Z,99829.00
2022-10-12T06:20:47.478Z,99820.25
2022-10-12T06:23:15.109Z,99822.72
2022-10-12T06:25:42.890Z,99814.81
2022-10-12T06:28:10.478Z,99813.84
2022-10-12T06:30:38.089Z,99824.13
2022-10-12T06:33:07.166Z,99824.78
2022-10-12T06:35:34.979Z,99817.72
2022-10-12T06:38:02.698Z,99820.22
2022-10-12T06:40:30.404Z,99823.72
2022-10-12T06:43:02.485Z,99828.00
2022-10-12T06:45:30.559Z,99819.13
2022-10-12T06:47:58.403Z,99822.34
2022-10-12T06:50:27.641Z,99830.88
2022-10-12T06:52:55.278Z,99833.44
2022-10-12T06:55:22.977Z,99827.25
2022-10-12T06:57:50.702Z,99832.34
2022-10-12T07:00:18.719Z,99827.66
2022-10-12T07:02:46.300Z,99826.56
2022-10-12T07:05:13.933Z,99829.88
2022-10-12T07:07:42.929Z,99820.81
2022-10-12T07:10:11.428Z,99818.88
2022-10-12T07:12:39.742Z,99821.16
2022-10-12T07:15:08.820Z,99833.09
2022-10-12T07:17:36.608Z,99830.00
2022-10-12T07:20:04.988Z,99833.38
2022-10-12T07:22:32.693Z,99820.63
2022-10-12T07:25:01.598Z,99829.81
2022-10-12T07:27:29.155Z,99828.88
2022-10-12T07:29:57.219Z,99839.22
2022-10-12T07:32:24.755Z,99844.16
2022-10-12T07:34:52.395Z,99845.53
2022-10-12T07:37:20.008Z,99845.47
2022-10-12T07:39:47.660Z,99848.81
2022-10-12T07:42:19.293Z,99845.94
2022-10-12T07:44:47.229Z,99843.16
2022-10-12T07:47:16.345Z,99842.81
2022-10-12T07:49:43.932Z,99842.81
2022-10-12T07:52:13.616Z,99842.50
2022-10-12T07:54:41.180Z,99846.31
2022-10-12T07:57:09.061Z,99847.69
2022-10-12T07:59:38.204Z,99852.03
2022-10-12T08:02:05.795Z,99857.50
2022-10-12T08:04:33.578Z,99857.59
2022-10-12T08:07:01.198Z,99852.28
2022-10-12T08:09:28.780Z,99852.84
2022-10-12T08:11:57.065Z,99847.38
2022-10-12T08:14:24.681Z,99849.97
2022-10-12T08:16:53.690Z,99853.97
2022-10-12T08:19:21.493Z,99862.91
2022-10-12T08:21:50.384Z,99855.78
2022-10-12T08:24:17.993Z,99861.50
2022-10-12T08:26:45.579Z,99845.88
2022-10-12T08:29:13.210Z,99852.00
2022-10-12T08:31:41.035Z,99850.34
2022-10-12T08:34:09.991Z,99850.38
2022-10-12T08:36:38.143Z,99843.53
2022-10-12T08:39:06.892Z,99847.38
2022-10-12T08:41:41.904Z,99842.69
2022-10-12T08:44:34.191Z,99838.16
2022-10-12T08:47:06.017Z,99837.63
2022-10-12T08:49:35.799Z,99832.91
2022-10-12T08:52:06.296Z,99836.38
2022-10-12T08:54:38.622Z,99835.34
2022-10-12T08:57:06.591Z,99819.75
2022-10-12T08:59:34.434Z,99828.00
2022-10-12T09:02:06.975Z,99831.09
2022-10-12T09:04:48.897Z,99837.28
2022-10-12T09:07:19.951Z,99834.84
2022-10-12T09:09:56.845Z,99833.16
2022-10-12T09:12:33.770Z,99821.66
2022-10-12T09:15:07.613Z,99838.63
2022-10-12T09:17:38.642Z,99837.28
2022-10-12T09:20:16.613Z,99832.25
2022-10-12T09:22:46.401Z,99829.66
2022-10-12T09:25:15.313Z,99835.31
2022-10-12T09:27:46.056Z,99825.84
2022-10-12T09:30:15.817Z,99833.53
2022-10-12T09:32:51.141Z,99834.06
2022-10-12T09:35:20.297Z,99818.50
2022-10-12T09:37:51.156Z,99823.22
2022-10-12T09:40:22.761Z,99825.22
2022-10-12T09:42:50.426Z,99812.44
2022-10-12T09:45:20.057Z,99827.38
2022-10-12T09:48:20.233Z,99827.56
2022-10-12T09:50:54.971Z,99826.53
2022-10-12T09:53:29.162Z,99824.75
2022-10-12T09:55:59.620Z,99816.94
2022-10-12T09:58:28.467Z,99823.03
2022-10-12T10:01:13.222Z,99823.03
2022-10-12T10:03:40.878Z,99823.47
2022-10-12T10:06:09.955Z,99823.75
2022-10-12T10:08:43.019Z,99813.31
2022-10-12T10:11:17.691Z,99823.16
2022-10-12T10:13:49.855Z,99817.75
2022-10-12T10:16:18.008Z,99822.25
2022-10-12T10:18:48.530Z,99825.03
2022-10-12T10:21:26.026Z,99819.06
2022-10-12T10:23:55.373Z,99815.91
2022-10-12T10:26:24.068Z,99813.72
2022-10-12T10:28:54.309Z,99814.22
2022-10-12T10:31:25.233Z,99814.38
2022-10-12T10:34:17.691Z,99817.06
2022-10-12T10:36:48.368Z,99816.31
2022-10-12T10:39:20.576Z,99815.09
2022-10-12T10:41:48.459Z,99813.09
2022-10-12T10:44:27.813Z,99824.91
2022-10-12T10:46:56.744Z,99821.59
2022-10-12T10:49:29.453Z,99811.91
2022-10-12T10:51:59.727Z,99815.59
2022-10-12T10:54:29.567Z,99817.38
2022-10-12T10:57:02.282Z,99805.34
2022-10-12T10:59:38.126Z,99796.00
2022-10-12T11:02:16.147Z,99795.72
2022-10-12T11:04:47.409Z,99803.31
2022-10-12T11:07:21.084Z,99807.44
2022-10-12T11:09:52.120Z,99794.88
2022-10-12T11:12:30.261Z,99798.06
2022-10-12T11:15:06.780Z,99791.44
2022-10-12T11:17:35.999Z,99788.75
2022-10-12T11:20:22.519Z,99789.59
2022-10-12T11:22:54.650Z,99789.91
2022-10-12T11:25:25.047Z,99784.13
2022-10-12T11:27:53.952Z,99779.03
2022-10-12T11:30:23.961Z,99771.81
2022-10-12T11:32:55.401Z,99774.09
2022-10-12T11:35:28.048Z,99770.09
2022-10-12T11:38:00.339Z,99771.97
2022-10-12T11:40:55.765Z,99766.59
2022-10-12T11:43:22.501Z,99762.91
2022-10-12T11:45:52.155Z,99759.94
2022-10-12T11:48:27.146Z,99755.66
2022-10-12T11:51:00.098Z,99753.75
2022-10-12T11:53:36.251Z,99750.72
2022-10-12T11:59:02.270Z,99744.59
2022-10-12T12:01:38.856Z,99741.00
2022-10-12T12:04:43.448Z,99746.53
2022-10-12T12:07:21.308Z,99743.94
2022-10-12T12:09:51.508Z,99742.84
2022-10-12T12:12:22.420Z,99740.59
2022-10-12T12:15:25.674Z,99735.47
2022-10-12T12:18:12.521Z,99733.63
2022-10-12T12:21:03.700Z,99728.88
2022-10-12T12:23:37.153Z,99733.56
2022-10-12T12:26:16.885Z,99730.22
2022-10-12T12:28:46.248Z,99729.28
2022-10-12T12:31:16.590Z,99736.31
2022-10-12T12:33:46.293Z,99732.38
2022-10-12T12:36:15.934Z,99729.09
2022-10-12T12:38:48.664Z,99725.56
2022-10-12T12:41:18.628Z,99707.91
2022-10-12T12:43:57.212Z,99719.25
2022-10-12T12:46:27.625Z,99728.22
2022-10-12T12:49:28.802Z,99729.78
2022-10-12T12:51:58.018Z,99725.41
2022-10-12T12:54:25.945Z,99720.53
2022-10-12T12:57:18.915Z,99714.50
2022-10-12T13:00:09.843Z,99714.31
2022-10-12T13:02:59.491Z,99708.91
2022-10-12T13:06:10.301Z,99716.84
2022-10-12T13:08:47.384Z,99711.88
2022-10-12T13:11:31.230Z,99707.31
2022-10-12T13:14:03.149Z,99706.56
2022-10-12T13:17:30.559Z,99704.06
2022-10-12T13:19:36.680Z,99696.50
2022-10-12T13:22:06.867Z,99697.31
2022-10-12T13:24:39.806Z,99695.38
2022-10-12T13:27:21.044Z,99686.75
2022-10-12T13:29:55.959Z,99688.88
2022-10-12T13:32:39.020Z,99692.00
2022-10-12T13:35:12.470Z,99684.91
2022-10-12T13:37:41.692Z,99684.63
2022-10-12T13:40:32.232Z,99686.44
2022-10-12T13:43:22.075Z,99685.59
2022-10-12T13:45:51.250Z,99691.50
2022-10-12T13:48:39.926Z,99690.03
2022-10-12T13:51:23.885Z,99690.00
2022-10-12T13:53:51.934Z,99681.75
2022-10-12T13:56:21.159Z,99686.41
2022-10-12T13:58:48.904Z,99677.28
2022-10-12T14:01:18.182Z,99678.09
2022-10-12T14:03:46.631Z,99682.81
2022-10-12T14:06:28.684Z,99681.06
2022-10-12T14:08:57.237Z,99688.59
2022-10-12T14:11:26.235Z,99685.44
2022-10-12T14:13:54.300Z,99682.88
2022-10-12T14:16:24.248Z,99680.91
2022-10-12T14:18:52.329Z,99673.41
2022-10-12T14:21:23.949Z,99671.00
2022-10-12T14:23:54.487Z,99673.41
2022-10-12T14:26:29.129Z,99671.56
2022-10-12T14:28:58.328Z,99654.91
2022-10-12T14:31:52.211Z,99649.97
2022-10-12T14:34:40.755Z,99643.19
2022-10-12T14:37:22.204Z,99647.66
2022-10-12T14:39:52.289Z,99647.66
2022-10-12T14:42:21.861Z,99641.22
2022-10-12T14:44:50.790Z,99651.69
2022-10-12T14:47:23.384Z,99658.31
2022-10-12T14:49:53.068Z,99661.00
2022-10-12T14:52:23.068Z,99671.84
2022-10-12T14:54:52.780Z,99666.47
2022-10-12T14:57:21.554Z,99668.69
2022-10-12T14:59:50.354Z,99664.66
2022-10-12T15:02:21.457Z,99656.34
2022-10-12T15:04:50.732Z,99658.34
2022-10-12T15:07:21.703Z,99658.78
2022-10-12T15:09:50.623Z,99665.44
2022-10-12T15:12:20.409Z,99656.78
2022-10-12T15:14:49.603Z,99655.00
2022-10-12T15:17:20.355Z,99646.41
2022-10-12T15:19:49.678Z,99644.38
2022-10-12T15:22:19.684Z,99640.88
2022-10-12T15:24:48.349Z,99644.81
2022-10-12T15:27:16.854Z,99649.28
2022-10-12T15:29:45.845Z,99641.56
2022-10-12T15:32:15.262Z,99642.69
2022-10-12T15:34:44.919Z,99645.25
2022-10-12T15:37:21.891Z,99642.84
2022-10-12T15:39:49.459Z,99634.34
2022-10-12T15:42:17.051Z,99635.31
2022-10-12T15:44:44.636Z,99627.00
2022-10-12T15:47:12.415Z,99625.44
2022-10-12T15:49:40.071Z,99609.94
2022-10-12T15:52:07.814Z,99613.53
2022-10-12T15:54:36.766Z,99615.16
2022-10-12T15:57:04.360Z,99619.09
2022-10-12T15:59:32.089Z,99613.59
2022-10-12T16:02:02.311Z,99611.81
2022-10-12T16:04:30.064Z,99612.72
2022-10-12T16:07:06.062Z,99610.22
2022-10-12T16:09:33.715Z,99607.16
2022-10-12T16:12:02.676Z,99607.50
2022-10-12T16:14:30.200Z,99608.53
2022-10-12T16:17:05.752Z,99609.47
2022-10-12T16:19:33.688Z,99608.75
2022-10-12T16:22:03.269Z,99615.09
2022-10-12T16:24:30.947Z,99610.72
2022-10-12T16:26:58.477Z,99603.25
2022-10-12T16:29:27.825Z,99611.38
2022-10-12T16:31:55.468Z,99614.09
2022-10-12T16:34:23.514Z,99603.97
2022-10-12T16:36:51.155Z,99608.81
2022-10-12T16:39:19.183Z,99601.78
2022-10-12T16:41:48.089Z,99614.66
2022-10-12T16:44:15.675Z,99614.19
2022-10-12T16:46:44.633Z,99613.25
2022-10-12T16:49:12.408Z,99608.50
2022-10-12T16:51:39.973Z,99616.59
2022-10-12T16:54:07.535Z,99623.84
2022-10-12T16:56:39.250Z,99621.50
2022-10-12T16:59:07.678Z,99623.38
2022-10-12T17:01:35.294Z,99614.84
2022-10-12T17:04:04.226Z,99619.53
2022-10-12T17:06:31.884Z,99616.16
2022-10-12T17:08:59.786Z,99623.41
2022-10-12T17:11:27.392Z,99623.84
2022-10-12T17:13:56.113Z,99620.69
2022-10-12T17:16:42.029Z,99619.13
2022-10-12T17:19:10.986Z,99619.41
2022-10-12T17:21:42.044Z,99621.34
2022-10-12T17:24:10.681Z,99617.63
2022-10-12T17:26:40.923Z,99622.06
2022-10-12T17:29:10.383Z,99614.19
2022-10-12T17:31:38.019Z,99613.63
2022-10-12T17:34:07.118Z,99626.06
2022-10-12T17:36:36.268Z,99627.34
2022-10-12T17:39:03.911Z,99627.88
2022-10-12T17:41:31.508Z,99629.81
2022-10-12T17:43:59.316Z,99619.56
2022-10-12T17:46:29.069Z,99621.75
2022-10-12T17:48:56.924Z,99616.28
2022-10-12T17:51:24.443Z,99626.63
2022-10-12T17:53:53.521Z,99629.50
2022-10-12T17:56:21.070Z,99632.19
2022-10-12T17:58:48.690Z,99617.31
2022-10-12T18:01:17.172Z,99628.97
2022-10-12T18:03:47.031Z,99628.25
2022-10-12T18:06:16.312Z,99628.25
2022-10-12T18:08:44.606Z,99622.81
2022-10-12T18:11:13.978Z,99626.91
2022-10-12T18:13:42.022Z,99618.38
2022-10-12T18:16:11.893Z,99598.44
2022-10-12T18:18:40.072Z,99625.00
2022-10-12T18:21:08.321Z,99614.63
2022-10-12T18:23:36.074Z,99616.28
2022-10-12T18:26:04.697Z,99615.47
2022-10-12T18:28:33.690Z,99617.06
2022-10-12T18:31:01.329Z,99618.06
2022-10-12T18:33:29.226Z,99608.66
2022-10-12T18:35:57.147Z,99601.81
2022-10-12T18:38:24.772Z,99610.84
2022-10-12T18:40:52.262Z,99614.91
2022-10-12T18:43:20.234Z,99614.03
2022-10-12T18:45:49.079Z,99623.75
2022-10-12T18:48:17.461Z,99618.66
2022-10-12T18:50:45.316Z,99622.16
2022-10-12T18:53:13.073Z,99626.66
2022-10-12T18:55:40.596Z,99624.94
2022-10-12T18:58:08.443Z,99626.09
2022-10-12T19:00:36.068Z,99627.63
2022-10-12T19:03:05.239Z,99631.13
2022-10-12T19:05:32.841Z,99643.09
2022-10-12T19:08:00.684Z,99643.97
2022-10-12T19:10:28.267Z,99642.38
2022-10-12T19:12:55.982Z,99634.72
2022-10-12T19:15:23.601Z,99619.09
2022-10-12T19:17:51.366Z,99630.44
2022-10-12T19:20:20.570Z,99641.81
2022-10-12T19:22:48.123Z,99636.50
2022-10-12T19:25:16.352Z,99644.34
2022-10-12T19:27:43.821Z,99635.91
2022-10-12T19:30:12.286Z,99637.78
2022-10-12T19:32:41.323Z,99631.88
2022-10-12T19:35:09.475Z,99637.16
2022-10-12T19:37:38.504Z,99646.81
2022-10-12T19:40:07.942Z,99643.25
2022-10-12T19:42:35.734Z,99645.81
2022-10-12T19:45:03.379Z,99644.59
2022-10-12T19:47:30.935Z,99647.41
2022-10-12T19:49:58.540Z,99631.16
2022-10-12T19:52:26.099Z,99633.72
2022-10-12T19:54:54.993Z,99634.53
2022-10-12T19:57:23.645Z,99633.19
2022-10-12T19:59:51.371Z,99636.25
2022-10-12T20:02:19.644Z,99628.59
2022-10-12T20:04:53.627Z,99635.22
2022-10-12T20:07:21.994Z,99634.59
2022-10-12T20:09:49.682Z,99639.94
2022-10-12T20:12:18.895Z,99641.00
2022-10-12T20:14:46.677Z,99644.63
2022-10-12T20:17:14.260Z,99649.72
2022-10-12T20:19:41.880Z,99642.66
2022-10-12T20:22:09.523Z,99628.66
2022-10-12T20:24:37.800Z,99632.09
2022-10-12T20:27:05.556Z,99633.81
2022-10-12T20:29:34.520Z,99643.38
2022-10-12T20:32:02.277Z,99640.50
2022-10-12T20:34:30.055Z,99640.63
2022-10-12T20:36:57.651Z,99635.72
2022-10-12T20:39:25.463Z,99635.66
2022-10-12T20:41:53.007Z,99637.00
2022-10-12T20:44:20.688Z,99645.09
2022-10-12T20:46:50.608Z,99649.59
2022-10-12T20:49:18.375Z,99644.78
2022-10-12T20:51:46.236Z,99648.53
2022-10-12T20:54:14.860Z,99643.59
2022-10-12T20:56:43.527Z,99630.34
2022-10-12T20:59:11.665Z,99627.78
2022-10-12T21:01:39.426Z,99637.47
2022-10-12T21:04:10.086Z,99619.97
2022-10-12T21:06:38.169Z,99618.63
2022-10-12T21:09:06.735Z,99625.50
2022-10-12T21:11:34.853Z,99626.47
2022-10-12T21:14:02.431Z,99629.28
2022-10-12T21:16:30.129Z,99642.47
2022-10-12T21:18:57.709Z,99628.03
2022-10-12T21:21:26.840Z,99632.56
2022-10-12T21:23:55.722Z,99636.28
2022-10-12T21:26:24.853Z,99623.44
2022-10-12T21:28:52.744Z,99629.34
2022-10-12T21:31:21.075Z,99631.41
2022-10-12T21:33:48.836Z,99621.09
2022-10-12T21:36:19.655Z,99626.41
2022-10-12T21:38:48.967Z,99628.94
2022-10-12T21:41:17.636Z,99626.63
2022-10-12T21:43:45.610Z,99619.03
2022-10-12T21:46:15.247Z,99609.28
2022-10-12T21:48:42.929Z,99603.06
2022-10-12T21:51:11.258Z,99609.94
2022-10-12T21:53:39.981Z,99610.88
2022-10-12T21:56:10.293Z,99611.34
2022-10-12T21:58:37.904Z,99602.69
2022-10-12T22:01:07.788Z,99600.31
2022-10-12T22:03:35.557Z,99611.88
2022-10-12T22:06:04.213Z,99617.38
2022-10-12T22:08:31.956Z,99603.72
2022-10-12T22:11:06.386Z,99611.66
2022-10-12T22:13:35.793Z,99616.00
2022-10-12T22:16:07.369Z,99611.72
2022-10-12T22:18:35.073Z,99617.78
2022-10-12T22:21:06.643Z,99615.22
2022-10-12T22:23:34.978Z,99617.69
2022-10-12T22:26:03.279Z,99606.50
2022-10-12T22:28:31.425Z,99621.22
2022-10-12T22:31:00.475Z,99624.94
2022-10-12T22:33:28.360Z,99623.22
2022-10-12T22:35:58.716Z,99623.97
2022-10-12T22:38:26.764Z,99624.88
2022-10-12T22:40:58.112Z,99626.00
2022-10-12T22:43:26.339Z,99628.63
2022-10-12T22:45:54.825Z,99612.28
2022-10-12T22:48:24.453Z,99621.00
2022-10-12T22:54:39.531Z,99616.84
2022-10-12T22:57:07.067Z,99617.59
2022-10-12T22:59:34.593Z,99611.53
2022-10-12T23:02:02.098Z,99606.41
2022-10-12T23:04:31.057Z,99607.31
2022-10-12T23:06:58.615Z,99605.41
2022-10-12T23:09:26.174Z,99596.09
2022-10-12T23:11:53.706Z,99602.16
2022-10-12T23:14:21.385Z,99594.22
2022-10-12T23:16:48.906Z,99598.06
2022-10-12T23:19:16.448Z,99599.19
2022-10-12T23:21:45.504Z,99597.84
2022-10-12T23:24:13.069Z,99591.06
2022-10-12T23:26:40.570Z,99588.59
2022-10-12T23:29:08.152Z,99592.69
2022-10-12T23:31:36.335Z,99584.59
2022-10-12T23:34:05.506Z,99587.28
2022-10-12T23:36:33.500Z,99589.16
2022-10-12T23:39:03.259Z,99593.75
2022-10-12T23:41:30.805Z,99588.34
2022-10-12T23:43:58.401Z,99593.78
2022-10-12T23:46:25.961Z,99591.06
2022-10-12T23:48:53.487Z,99594.81
2022-10-12T23:51:21.094Z,99593.41
2022-10-12T23:53:48.674Z,99593.41
2022-10-12T23:56:17.609Z,99595.53
2022-10-12T23:58:45.149Z,99599.72
